sensor_id;sensor_type;location;lat;lon;timestamp;P1;durP1;ratioP1;P2;durP2;ratioP2
14776;SDS011;7480;43.124;25.686;2023-08-07T00:01:18;5.70;;;5.20;;
14776;SDS011;7480;43.124;25.686;2023-08-07T00:03:45;5.43;;;4.93;;
14776;SDS011;7480;43.124;25.686;2023-08-07T00:06:13;5.33;;;4.83;;
14776;SDS011;7480;43.124;25.686;2023-08-07T00:08:40;4.80;;;4.40;;
14776;SDS011;7480;43.124;25.686;2023-08-07T00:11:07;4.77;;;4.37;;
14776;SDS011;7480;43.124;25.686;2023-08-07T00:13:35;4.40;;;4.10;;
14776;SDS011;7480;43.124;25.686;2023-08-07T00:16:02;4.23;;;3.83;;
14776;SDS011;7480;43.124;25.686;2023-08-07T00:18:29;5.33;;;4.37;;
14776;SDS011;7480;43.124;25.686;2023-08-07T00:20:56;4.53;;;3.80;;
14776;SDS011;7480;43.124;25.686;2023-08-07T00:23:23;4.77;;;4.30;;
14776;SDS011;7480;43.124;25.686;2023-08-07T00:25:50;4.87;;;4.33;;
14776;SDS011;7480;43.124;25.686;2023-08-07T00:28:16;5.30;;;4.13;;
14776;SDS011;7480;43.124;25.686;2023-08-07T00:30:43;4.00;;;3.70;;
14776;SDS011;7480;43.124;25.686;2023-08-07T00:33:10;5.37;;;4.30;;
14776;SDS011;7480;43.124;25.686;2023-08-07T00:35:37;4.57;;;4.17;;
14776;SDS011;7480;43.124;25.686;2023-08-07T00:38:05;3.87;;;3.53;;
14776;SDS011;7480;43.124;25.686;2023-08-07T00:40:38;5.30;;;4.37;;
14776;SDS011;7480;43.124;25.686;2023-08-07T00:43:05;3.93;;;3.60;;
14776;SDS011;7480;43.124;25.686;2023-08-07T00:45:42;4.50;;;4.10;;
14776;SDS011;7480;43.124;25.686;2023-08-07T00:48:11;4.80;;;3.70;;
14776;SDS011;7480;43.124;25.686;2023-08-07T00:50:39;3.87;;;3.53;;
14776;SDS011;7480;43.124;25.686;2023-08-07T00:53:13;3.90;;;3.60;;
14776;SDS011;7480;43.124;25.686;2023-08-07T00:55:40;4.30;;;3.90;;
14776;SDS011;7480;43.124;25.686;2023-08-07T00:58:08;3.67;;;3.37;;
14776;SDS011;7480;43.124;25.686;2023-08-07T01:00:35;3.87;;;3.57;;
14776;SDS011;7480;43.124;25.686;2023-08-07T01:03:05;3.93;;;3.53;;
14776;SDS011;7480;43.124;25.686;2023-08-07T01:05:32;3.67;;;3.37;;
14776;SDS011;7480;43.124;25.686;2023-08-07T01:07:59;3.60;;;3.30;;
14776;SDS011;7480;43.124;25.686;2023-08-07T01:11:14;3.77;;;3.37;;
14776;SDS011;7480;43.124;25.686;2023-08-07T01:13:29;3.17;;;2.97;;
14776;SDS011;7480;43.124;25.686;2023-08-07T01:16:21;3.57;;;3.27;;
14776;SDS011;7480;43.124;25.686;2023-08-07T01:19:00;3.43;;;2.67;;
14776;SDS011;7480;43.124;25.686;2023-08-07T01:21:27;2.90;;;2.70;;
14776;SDS011;7480;43.124;25.686;2023-08-07T01:23:54;3.13;;;2.83;;
14776;SDS011;7480;43.124;25.686;2023-08-07T01:26:21;3.20;;;2.90;;
14776;SDS011;7480;43.124;25.686;2023-08-07T01:28:58;3.80;;;2.63;;
14776;SDS011;7480;43.124;25.686;2023-08-07T01:31:33;2.70;;;2.50;;
14776;SDS011;7480;43.124;25.686;2023-08-07T01:34:06;3.70;;;3.00;;
14776;SDS011;7480;43.124;25.686;2023-08-07T01:36:37;3.10;;;2.90;;
14776;SDS011;7480;43.124;25.686;2023-08-07T01:39:06;3.27;;;2.80;;
14776;SDS011;7480;43.124;25.686;2023-08-07T01:41:35;3.40;;;3.10;;
14776;SDS011;7480;43.124;25.686;2023-08-07T01:44:02;4.00;;;2.80;;
14776;SDS011;7480;43.124;25.686;2023-08-07T01:46:31;3.17;;;2.87;;
14776;SDS011;7480;43.124;25.686;2023-08-07T01:48:58;4.30;;;3.57;;
14776;SDS011;7480;43.124;25.686;2023-08-07T01:51:24;3.20;;;3.00;;
14776;SDS011;7480;43.124;25.686;2023-08-07T01:53:51;4.93;;;3.73;;
14776;SDS011;7480;43.124;25.686;2023-08-07T01:56:19;3.50;;;3.20;;
14776;SDS011;7480;43.124;25.686;2023-08-07T01:58:45;3.90;;;3.60;;
14776;SDS011;7480;43.124;25.686;2023-08-07T02:01:12;3.73;;;3.43;;
14776;SDS011;7480;43.124;25.686;2023-08-07T02:03:39;4.10;;;3.70;;
14776;SDS011;7480;43.124;25.686;2023-08-07T02:06:05;4.23;;;3.83;;
14776;SDS011;7480;43.124;25.686;2023-08-07T02:08:32;4.23;;;3.83;;
14776;SDS011;7480;43.124;25.686;2023-08-07T02:10:59;4.47;;;4.07;;
14776;SDS011;7480;43.124;25.686;2023-08-07T02:13:27;4.03;;;3.73;;
14776;SDS011;7480;43.124;25.686;2023-08-07T02:15:54;4.33;;;3.93;;
14776;SDS011;7480;43.124;25.686;2023-08-07T02:18:21;5.93;;;4.37;;
14776;SDS011;7480;43.124;25.686;2023-08-07T02:20:48;4.70;;;4.27;;
14776;SDS011;7480;43.124;25.686;2023-08-07T02:23:15;5.00;;;4.60;;
14776;SDS011;7480;43.124;25.686;2023-08-07T02:25:41;4.63;;;4.23;;
14776;SDS011;7480;43.124;25.686;2023-08-07T02:28:08;5.37;;;4.93;;
14776;SDS011;7480;43.124;25.686;2023-08-07T02:30:35;4.90;;;4.50;;
14776;SDS011;7480;43.124;25.686;2023-08-07T02:33:02;5.20;;;4.80;;
14776;SDS011;7480;43.124;25.686;2023-08-07T02:35:29;5.50;;;4.90;;
14776;SDS011;7480;43.124;25.686;2023-08-07T02:37:55;5.30;;;4.90;;
14776;SDS011;7480;43.124;25.686;2023-08-07T02:40:22;5.93;;;5.33;;
14776;SDS011;7480;43.124;25.686;2023-08-07T02:42:49;6.97;;;5.83;;
14776;SDS011;7480;43.124;25.686;2023-08-07T02:45:16;4.90;;;4.50;;
14776;SDS011;7480;43.124;25.686;2023-08-07T02:47:42;5.23;;;4.73;;
14776;SDS011;7480;43.124;25.686;2023-08-07T02:50:09;4.87;;;4.47;;
14776;SDS011;7480;43.124;25.686;2023-08-07T02:52:36;5.37;;;4.87;;
14776;SDS011;7480;43.124;25.686;2023-08-07T02:55:02;5.13;;;4.63;;
14776;SDS011;7480;43.124;25.686;2023-08-07T02:57:29;5.03;;;4.63;;
14776;SDS011;7480;43.124;25.686;2023-08-07T02:59:56;5.73;;;5.00;;
14776;SDS011;7480;43.124;25.686;2023-08-07T03:02:23;6.20;;;5.00;;
14776;SDS011;7480;43.124;25.686;2023-08-07T03:04:50;5.13;;;4.67;;
14776;SDS011;7480;43.124;25.686;2023-08-07T03:07:17;6.13;;;5.50;;
14776;SDS011;7480;43.124;25.686;2023-08-07T03:09:47;5.73;;;5.23;;
14776;SDS011;7480;43.124;25.686;2023-08-07T03:12:13;6.00;;;5.40;;
14776;SDS011;7480;43.124;25.686;2023-08-07T03:14:40;5.77;;;5.27;;
14776;SDS011;7480;43.124;25.686;2023-08-07T03:17:07;5.10;;;4.70;;
14776;SDS011;7480;43.124;25.686;2023-08-07T03:19:34;6.60;;;5.27;;
14776;SDS011;7480;43.124;25.686;2023-08-07T03:22:01;6.00;;;5.40;;
14776;SDS011;7480;43.124;25.686;2023-08-07T03:24:28;5.70;;;5.03;;
14776;SDS011;7480;43.124;25.686;2023-08-07T03:26:55;5.30;;;4.90;;
14776;SDS011;7480;43.124;25.686;2023-08-07T03:29:22;4.87;;;4.47;;
14776;SDS011;7480;43.124;25.686;2023-08-07T03:31:49;5.03;;;4.63;;
14776;SDS011;7480;43.124;25.686;2023-08-07T03:34:22;4.90;;;4.50;;
14776;SDS011;7480;43.124;25.686;2023-08-07T03:36:49;4.87;;;4.47;;
14776;SDS011;7480;43.124;25.686;2023-08-07T03:39:16;5.50;;;5.00;;
14776;SDS011;7480;43.124;25.686;2023-08-07T03:41:42;5.77;;;5.27;;
14776;SDS011;7480;43.124;25.686;2023-08-07T03:44:09;5.53;;;5.03;;
14776;SDS011;7480;43.124;25.686;2023-08-07T03:46:36;4.70;;;4.30;;
14776;SDS011;7480;43.124;25.686;2023-08-07T03:49:03;5.17;;;4.67;;
14776;SDS011;7480;43.124;25.686;2023-08-07T03:51:29;5.43;;;4.93;;
14776;SDS011;7480;43.124;25.686;2023-08-07T03:53:58;6.73;;;5.17;;
14776;SDS011;7480;43.124;25.686;2023-08-07T03:56:26;5.20;;;4.70;;
14776;SDS011;7480;43.124;25.686;2023-08-07T03:58:53;6.63;;;4.97;;
14776;SDS011;7480;43.124;25.686;2023-08-07T04:01:19;5.10;;;3.87;;
14776;SDS011;7480;43.124;25.686;2023-08-07T04:03:46;4.40;;;4.10;;
14776;SDS011;7480;43.124;25.686;2023-08-07T04:06:14;4.63;;;4.23;;
14776;SDS011;7480;43.124;25.686;2023-08-07T04:08:44;4.57;;;4.17;;
14776;SDS011;7480;43.124;25.686;2023-08-07T04:11:11;3.40;;;3.20;;
14776;SDS011;7480;43.124;25.686;2023-08-07T04:13:38;4.23;;;3.83;;
14776;SDS011;7480;43.124;25.686;2023-08-07T04:16:05;4.00;;;3.70;;
14776;SDS011;7480;43.124;25.686;2023-08-07T04:18:32;3.60;;;3.30;;
14776;SDS011;7480;43.124;25.686;2023-08-07T04:20:59;3.63;;;3.33;;
14776;SDS011;7480;43.124;25.686;2023-08-07T04:23:26;3.57;;;3.27;;
14776;SDS011;7480;43.124;25.686;2023-08-07T04:25:53;3.47;;;3.17;;
14776;SDS011;7480;43.124;25.686;2023-08-07T04:28:21;3.70;;;3.40;;
14776;SDS011;7480;43.124;25.686;2023-08-07T04:30:51;4.30;;;3.23;;
14776;SDS011;7480;43.124;25.686;2023-08-07T04:33:19;3.10;;;2.90;;
14776;SDS011;7480;43.124;25.686;2023-08-07T04:35:46;3.47;;;3.17;;
14776;SDS011;7480;43.124;25.686;2023-08-07T04:38:14;3.73;;;3.43;;
14776;SDS011;7480;43.124;25.686;2023-08-07T04:40:47;3.80;;;3.40;;
14776;SDS011;7480;43.124;25.686;2023-08-07T04:43:15;3.73;;;3.27;;
14776;SDS011;7480;43.124;25.686;2023-08-07T04:45:43;4.10;;;3.80;;
14776;SDS011;7480;43.124;25.686;2023-08-07T04:48:12;3.30;;;3.10;;
14776;SDS011;7480;43.124;25.686;2023-08-07T04:50:39;3.47;;;3.20;;
14776;SDS011;7480;43.124;25.686;2023-08-07T04:53:06;3.47;;;3.27;;
14776;SDS011;7480;43.124;25.686;2023-08-07T04:55:33;3.20;;;2.90;;
14776;SDS011;7480;43.124;25.686;2023-08-07T04:58:00;3.60;;;3.30;;
14776;SDS011;7480;43.124;25.686;2023-08-07T05:00:27;3.57;;;3.27;;
14776;SDS011;7480;43.124;25.686;2023-08-07T05:02:54;3.47;;;3.23;;
14776;SDS011;7480;43.124;25.686;2023-08-07T05:05:21;3.30;;;3.10;;
14776;SDS011;7480;43.124;25.686;2023-08-07T05:07:48;5.33;;;3.70;;
14776;SDS011;7480;43.124;25.686;2023-08-07T05:10:15;4.13;;;3.80;;
14776;SDS011;7480;43.124;25.686;2023-08-07T05:12:42;3.90;;;3.60;;
14776;SDS011;7480;43.124;25.686;2023-08-07T05:15:08;3.57;;;3.27;;
14776;SDS011;7480;43.124;25.686;2023-08-07T05:17:35;3.60;;;3.30;;
14776;SDS011;7480;43.124;25.686;2023-08-07T05:20:02;4.03;;;3.73;;
14776;SDS011;7480;43.124;25.686;2023-08-07T05:22:29;3.23;;;3.03;;
14776;SDS011;7480;43.124;25.686;2023-08-07T05:24:56;3.60;;;3.30;;
14776;SDS011;7480;43.124;25.686;2023-08-07T05:27:22;3.60;;;3.03;;
14776;SDS011;7480;43.124;25.686;2023-08-07T05:29:49;3.17;;;2.90;;
14776;SDS011;7480;43.124;25.686;2023-08-07T05:32:16;4.00;;;3.70;;
14776;SDS011;7480;43.124;25.686;2023-08-07T05:34:42;3.70;;;3.40;;
14776;SDS011;7480;43.124;25.686;2023-08-07T05:37:12;3.67;;;3.25;;
14776;SDS011;7480;43.124;25.686;2023-08-07T05:39:39;3.30;;;2.90;;
14776;SDS011;7480;43.124;25.686;2023-08-07T05:42:05;3.40;;;3.10;;
14776;SDS011;7480;43.124;25.686;2023-08-07T05:44:34;3.30;;;3.10;;
14776;SDS011;7480;43.124;25.686;2023-08-07T05:47:01;3.07;;;2.87;;
14776;SDS011;7480;43.124;25.686;2023-08-07T05:49:28;3.17;;;2.97;;
14776;SDS011;7480;43.124;25.686;2023-08-07T05:51:54;3.03;;;2.83;;
14776;SDS011;7480;43.124;25.686;2023-08-07T05:54:22;2.90;;;2.70;;
14776;SDS011;7480;43.124;25.686;2023-08-07T05:56:48;2.60;;;2.40;;
14776;SDS011;7480;43.124;25.686;2023-08-07T05:59:15;2.67;;;2.47;;
14776;SDS011;7480;43.124;25.686;2023-08-07T06:01:42;2.60;;;2.40;;
14776;SDS011;7480;43.124;25.686;2023-08-07T06:04:09;3.43;;;2.90;;
14776;SDS011;7480;43.124;25.686;2023-08-07T06:06:35;2.90;;;2.70;;
14776;SDS011;7480;43.124;25.686;2023-08-07T06:09:03;3.23;;;2.63;;
14776;SDS011;7480;43.124;25.686;2023-08-07T06:11:30;3.30;;;3.10;;
14776;SDS011;7480;43.124;25.686;2023-08-07T06:13:57;2.87;;;2.50;;
14776;SDS011;7480;43.124;25.686;2023-08-07T06:16:24;2.70;;;2.50;;
14776;SDS011;7480;43.124;25.686;2023-08-07T06:18:51;3.70;;;2.80;;
14776;SDS011;7480;43.124;25.686;2023-08-07T06:21:17;3.13;;;2.60;;
14776;SDS011;7480;43.124;25.686;2023-08-07T06:23:44;3.27;;;2.03;;
14776;SDS011;7480;43.124;25.686;2023-08-07T06:26:11;2.77;;;2.20;;
14776;SDS011;7480;43.124;25.686;2023-08-07T06:28:38;3.63;;;2.67;;
14776;SDS011;7480;43.124;25.686;2023-08-07T06:31:06;3.23;;;2.20;;
14776;SDS011;7480;43.124;25.686;2023-08-07T06:33:34;2.97;;;2.70;;
14776;SDS011;7480;43.124;25.686;2023-08-07T06:36:02;2.50;;;2.30;;
14776;SDS011;7480;43.124;25.686;2023-08-07T06:38:29;2.73;;;2.33;;
14776;SDS011;7480;43.124;25.686;2023-08-07T06:40:56;2.67;;;2.33;;
14776;SDS011;7480;43.124;25.686;2023-08-07T06:43:23;2.60;;;2.40;;
14776;SDS011;7480;43.124;25.686;2023-08-07T06:45:50;2.70;;;2.50;;
14776;SDS011;7480;43.124;25.686;2023-08-07T06:48:17;3.23;;;2.60;;
14776;SDS011;7480;43.124;25.686;2023-08-07T06:50:51;2.73;;;2.53;;
14776;SDS011;7480;43.124;25.686;2023-08-07T06:53:17;2.77;;;2.57;;
14776;SDS011;7480;43.124;25.686;2023-08-07T06:55:45;3.27;;;2.67;;
14776;SDS011;7480;43.124;25.686;2023-08-07T06:58:12;2.92;;;2.72;;
14776;SDS011;7480;43.124;25.686;2023-08-07T07:00:39;3.00;;;2.80;;
14776;SDS011;7480;43.124;25.686;2023-08-07T07:03:05;3.13;;;2.92;;
14776;SDS011;7480;43.124;25.686;2023-08-07T07:05:34;3.10;;;2.90;;
14776;SDS011;7480;43.124;25.686;2023-08-07T07:08:00;3.63;;;3.33;;
14776;SDS011;7480;43.124;25.686;2023-08-07T07:10:27;4.18;;;3.05;;
14776;SDS011;7480;43.124;25.686;2023-08-07T07:12:54;3.13;;;2.83;;
14776;SDS011;7480;43.124;25.686;2023-08-07T07:15:21;3.25;;;2.72;;
14776;SDS011;7480;43.124;25.686;2023-08-07T07:17:48;3.63;;;2.63;;
14776;SDS011;7480;43.124;25.686;2023-08-07T07:20:15;3.45;;;3.00;;
14776;SDS011;7480;43.124;25.686;2023-08-07T07:22:41;2.90;;;2.70;;
14776;SDS011;7480;43.124;25.686;2023-08-07T07:25:08;3.03;;;2.83;;
14776;SDS011;7480;43.124;25.686;2023-08-07T07:27:35;2.90;;;2.70;;
14776;SDS011;7480;43.124;25.686;2023-08-07T07:30:02;2.90;;;2.70;;
14776;SDS011;7480;43.124;25.686;2023-08-07T07:32:29;3.53;;;3.25;;
14776;SDS011;7480;43.124;25.686;2023-08-07T07:34:56;2.90;;;2.70;;
14776;SDS011;7480;43.124;25.686;2023-08-07T07:37:23;2.70;;;2.50;;
14776;SDS011;7480;43.124;25.686;2023-08-07T07:39:49;2.55;;;2.35;;
14776;SDS011;7480;43.124;25.686;2023-08-07T07:42:16;2.50;;;2.30;;
14776;SDS011;7480;43.124;25.686;2023-08-07T07:44:43;2.50;;;2.30;;
14776;SDS011;7480;43.124;25.686;2023-08-07T07:47:10;2.85;;;2.60;;
14776;SDS011;7480;43.124;25.686;2023-08-07T07:49:43;2.30;;;2.10;;
14776;SDS011;7480;43.124;25.686;2023-08-07T07:52:11;3.22;;;2.28;;
14776;SDS011;7480;43.124;25.686;2023-08-07T07:54:38;2.75;;;2.42;;
14776;SDS011;7480;43.124;25.686;2023-08-07T07:57:05;2.25;;;2.00;;
14776;SDS011;7480;43.124;25.686;2023-08-07T07:59:32;2.55;;;2.35;;
14776;SDS011;7480;43.124;25.686;2023-08-07T08:01:58;2.47;;;2.28;;
14776;SDS011;7480;43.124;25.686;2023-08-07T08:04:25;2.63;;;2.42;;
14776;SDS011;7480;43.124;25.686;2023-08-07T08:06:52;2.42;;;2.25;;
14776;SDS011;7480;43.124;25.686;2023-08-07T08:09:19;2.42;;;2.30;;
14776;SDS011;7480;43.124;25.686;2023-08-07T08:11:46;2.33;;;2.13;;
14776;SDS011;7480;43.124;25.686;2023-08-07T08:14:13;2.50;;;2.30;;
14776;SDS011;7480;43.124;25.686;2023-08-07T08:16:39;2.50;;;2.30;;
14776;SDS011;7480;43.124;25.686;2023-08-07T08:19:06;2.72;;;2.35;;
14776;SDS011;7480;43.124;25.686;2023-08-07T08:21:35;2.60;;;2.40;;
14776;SDS011;7480;43.124;25.686;2023-08-07T08:24:02;2.78;;;2.58;;
14776;SDS011;7480;43.124;25.686;2023-08-07T08:26:29;2.70;;;2.50;;
14776;SDS011;7480;43.124;25.686;2023-08-07T08:28:56;2.55;;;2.35;;
14776;SDS011;7480;43.124;25.686;2023-08-07T08:31:23;2.30;;;2.10;;
14776;SDS011;7480;43.124;25.686;2023-08-07T08:33:50;2.05;;;1.95;;
14776;SDS011;7480;43.124;25.686;2023-08-07T08:36:17;2.20;;;2.00;;
14776;SDS011;7480;43.124;25.686;2023-08-07T08:38:44;3.28;;;2.05;;
14776;SDS011;7480;43.124;25.686;2023-08-07T08:41:13;2.22;;;2.03;;
14776;SDS011;7480;43.124;25.686;2023-08-07T08:43:40;2.83;;;1.92;;
14776;SDS011;7480;43.124;25.686;2023-08-07T08:46:07;2.20;;;2.00;;
14776;SDS011;7480;43.124;25.686;2023-08-07T08:48:38;2.38;;;2.10;;
14776;SDS011;7480;43.124;25.686;2023-08-07T08:51:05;1.98;;;1.83;;
14776;SDS011;7480;43.124;25.686;2023-08-07T08:53:32;2.75;;;1.70;;
14776;SDS011;7480;43.124;25.686;2023-08-07T08:56:00;2.10;;;1.90;;
14776;SDS011;7480;43.124;25.686;2023-08-07T08:58:28;1.85;;;1.58;;
14776;SDS011;7480;43.124;25.686;2023-08-07T09:00:55;1.70;;;1.60;;
14776;SDS011;7480;43.124;25.686;2023-08-07T09:03:22;1.55;;;1.45;;
14776;SDS011;7480;43.124;25.686;2023-08-07T09:05:51;2.35;;;1.60;;
14776;SDS011;7480;43.124;25.686;2023-08-07T09:08:21;2.15;;;1.20;;
14776;SDS011;7480;43.124;25.686;2023-08-07T09:10:49;1.60;;;1.50;;
14776;SDS011;7480;43.124;25.686;2023-08-07T09:13:16;1.77;;;1.67;;
14776;SDS011;7480;43.124;25.686;2023-08-07T09:15:43;2.55;;;1.70;;
14776;SDS011;7480;43.124;25.686;2023-08-07T09:18:14;1.95;;;1.58;;
14776;SDS011;7480;43.124;25.686;2023-08-07T09:20:41;1.92;;;1.40;;
14776;SDS011;7480;43.124;25.686;2023-08-07T09:23:08;1.45;;;1.35;;
14776;SDS011;7480;43.124;25.686;2023-08-07T09:25:35;1.50;;;1.40;;
14776;SDS011;7480;43.124;25.686;2023-08-07T09:28:02;1.35;;;1.20;;
14776;SDS011;7480;43.124;25.686;2023-08-07T09:30:33;1.70;;;1.20;;
14776;SDS011;7480;43.124;25.686;2023-08-07T09:33:01;1.48;;;1.38;;
14776;SDS011;7480;43.124;25.686;2023-08-07T09:35:29;3.10;;;1.30;;
14776;SDS011;7480;43.124;25.686;2023-08-07T09:38:00;1.38;;;1.25;;
14776;SDS011;7480;43.124;25.686;2023-08-07T09:40:28;1.20;;;1.10;;
14776;SDS011;7480;43.124;25.686;2023-08-07T09:42:55;1.98;;;1.60;;
14776;SDS011;7480;43.124;25.686;2023-08-07T09:45:26;1.30;;;1.20;;
14776;SDS011;7480;43.124;25.686;2023-08-07T09:48:03;1.38;;;1.27;;
14776;SDS011;7480;43.124;25.686;2023-08-07T09:50:33;1.50;;;1.40;;
14776;SDS011;7480;43.124;25.686;2023-08-07T09:52:59;1.15;;;1.05;;
14776;SDS011;7480;43.124;25.686;2023-08-07T09:55:27;2.35;;;1.42;;
14776;SDS011;7480;43.124;25.686;2023-08-07T09:57:54;1.50;;;1.40;;
14776;SDS011;7480;43.124;25.686;2023-08-07T10:00:21;1.50;;;1.40;;
14776;SDS011;7480;43.124;25.686;2023-08-07T10:02:48;2.10;;;1.30;;
14776;SDS011;7480;43.124;25.686;2023-08-07T10:05:18;1.48;;;1.20;;
14776;SDS011;7480;43.124;25.686;2023-08-07T10:07:45;3.05;;;1.40;;
14776;SDS011;7480;43.124;25.686;2023-08-07T10:10:13;1.65;;;1.45;;
14776;SDS011;7480;43.124;25.686;2023-08-07T10:12:41;1.40;;;1.30;;
14776;SDS011;7480;43.124;25.686;2023-08-07T10:15:08;1.35;;;1.25;;
14776;SDS011;7480;43.124;25.686;2023-08-07T10:17:35;2.05;;;1.58;;
14776;SDS011;7480;43.124;25.686;2023-08-07T10:20:02;1.60;;;1.50;;
14776;SDS011;7480;43.124;25.686;2023-08-07T10:22:29;2.35;;;1.48;;
14776;SDS011;7480;43.124;25.686;2023-08-07T10:25:01;1.40;;;1.20;;
14776;SDS011;7480;43.124;25.686;2023-08-07T10:27:30;1.63;;;1.30;;
14776;SDS011;7480;43.124;25.686;2023-08-07T10:29:59;1.58;;;1.30;;
14776;SDS011;7480;43.124;25.686;2023-08-07T10:32:28;2.50;;;1.33;;
14776;SDS011;7480;43.124;25.686;2023-08-07T10:34:55;1.58;;;1.48;;
14776;SDS011;7480;43.124;25.686;2023-08-07T10:37:38;1.55;;;1.13;;
14776;SDS011;7480;43.124;25.686;2023-08-07T10:40:07;2.80;;;1.20;;
14776;SDS011;7480;43.124;25.686;2023-08-07T10:42:50;1.55;;;1.20;;
14776;SDS011;7480;43.124;25.686;2023-08-07T10:45:18;1.80;;;1.45;;
14776;SDS011;7480;43.124;25.686;2023-08-07T10:56:03;1.27;;;1.17;;
14776;SDS011;7480;43.124;25.686;2023-08-07T10:58:34;1.65;;;1.30;;
14776;SDS011;7480;43.124;25.686;2023-08-07T11:06:23;1.10;;;1.00;;
14776;SDS011;7480;43.124;25.686;2023-08-07T11:08:52;1.92;;;1.20;;
14776;SDS011;7480;43.124;25.686;2023-08-07T11:11:19;1.17;;;1.05;;
14776;SDS011;7480;43.124;25.686;2023-08-07T11:13:46;1.33;;;1.20;;
14776;SDS011;7480;43.124;25.686;2023-08-07T11:16:13;1.40;;;1.30;;
14776;SDS011;7480;43.124;25.686;2023-08-07T11:18:40;1.30;;;1.20;;
14776;SDS011;7480;43.124;25.686;2023-08-07T11:21:08;1.40;;;1.27;;
14776;SDS011;7480;43.124;25.686;2023-08-07T11:23:37;1.85;;;1.20;;
14776;SDS011;7480;43.124;25.686;2023-08-07T11:26:04;1.65;;;1.40;;
14776;SDS011;7480;43.124;25.686;2023-08-07T11:28:31;2.40;;;1.40;;
14776;SDS011;7480;43.124;25.686;2023-08-07T11:30:58;2.15;;;1.50;;
14776;SDS011;7480;43.124;25.686;2023-08-07T11:33:26;1.38;;;1.20;;
14776;SDS011;7480;43.124;25.686;2023-08-07T11:35:53;1.40;;;1.30;;
14776;SDS011;7480;43.124;25.686;2023-08-07T11:38:33;1.30;;;1.20;;
14776;SDS011;7480;43.124;25.686;2023-08-07T11:41:05;1.33;;;1.23;;
14776;SDS011;7480;43.124;25.686;2023-08-07T11:43:33;1.55;;;1.45;;
14776;SDS011;7480;43.124;25.686;2023-08-07T11:46:01;1.38;;;1.20;;
14776;SDS011;7480;43.124;25.686;2023-08-07T11:48:30;1.55;;;1.40;;
14776;SDS011;7480;43.124;25.686;2023-08-07T11:50:58;1.30;;;1.20;;
14776;SDS011;7480;43.124;25.686;2023-08-07T11:53:26;1.25;;;1.15;;
14776;SDS011;7480;43.124;25.686;2023-08-07T11:55:58;3.45;;;1.20;;
14776;SDS011;7480;43.124;25.686;2023-08-07T11:58:27;1.10;;;1.00;;
14776;SDS011;7480;43.124;25.686;2023-08-07T12:00:58;2.20;;;1.50;;
14776;SDS011;7480;43.124;25.686;2023-08-07T12:03:29;1.30;;;1.20;;
14776;SDS011;7480;43.124;25.686;2023-08-07T12:05:58;1.40;;;1.30;;
14776;SDS011;7480;43.124;25.686;2023-08-07T12:08:30;2.70;;;1.00;;
14776;SDS011;7480;43.124;25.686;2023-08-07T12:11:01;1.33;;;1.23;;
14776;SDS011;7480;43.124;25.686;2023-08-07T12:13:31;1.50;;;1.40;;
14776;SDS011;7480;43.124;25.686;2023-08-07T12:16:01;1.30;;;1.20;;
14776;SDS011;7480;43.124;25.686;2023-08-07T12:18:31;1.45;;;1.20;;
14776;SDS011;7480;43.124;25.686;2023-08-07T12:21:02;1.92;;;1.02;;
14776;SDS011;7480;43.124;25.686;2023-08-07T12:23:32;1.73;;;1.42;;
14776;SDS011;7480;43.124;25.686;2023-08-07T12:25:59;1.45;;;1.10;;
14776;SDS011;7480;43.124;25.686;2023-08-07T12:28:26;1.85;;;1.20;;
14776;SDS011;7480;43.124;25.686;2023-08-07T12:30:53;0.80;;;0.80;;
14776;SDS011;7480;43.124;25.686;2023-08-07T12:33:20;1.27;;;1.10;;
14776;SDS011;7480;43.124;25.686;2023-08-07T12:35:46;1.95;;;1.00;;
14776;SDS011;7480;43.124;25.686;2023-08-07T12:38:13;1.10;;;1.00;;
14776;SDS011;7480;43.124;25.686;2023-08-07T12:40:41;1.48;;;1.30;;
14776;SDS011;7480;43.124;25.686;2023-08-07T12:43:09;1.02;;;1.00;;
14776;SDS011;7480;43.124;25.686;2023-08-07T12:45:36;1.05;;;1.00;;
14776;SDS011;7480;43.124;25.686;2023-08-07T12:48:06;2.65;;;1.20;;
14776;SDS011;7480;43.124;25.686;2023-08-07T12:50:34;1.00;;;0.90;;
14776;SDS011;7480;43.124;25.686;2023-08-07T12:53:01;1.35;;;1.13;;
14776;SDS011;7480;43.124;25.686;2023-08-07T12:55:29;1.45;;;1.00;;
14776;SDS011;7480;43.124;25.686;2023-08-07T12:57:56;0.82;;;0.82;;
14776;SDS011;7480;43.124;25.686;2023-08-07T13:00:23;1.08;;;0.98;;
14776;SDS011;7480;43.124;25.686;2023-08-07T13:02:52;1.23;;;1.00;;
14776;SDS011;7480;43.124;25.686;2023-08-07T13:05:19;1.30;;;1.10;;
14776;SDS011;7480;43.124;25.686;2023-08-07T13:07:46;2.00;;;0.82;;
14776;SDS011;7480;43.124;25.686;2023-08-07T13:10:14;1.13;;;1.02;;
14776;SDS011;7480;43.124;25.686;2023-08-07T13:12:43;1.08;;;0.98;;
14776;SDS011;7480;43.124;25.686;2023-08-07T13:15:14;1.60;;;1.50;;
14776;SDS011;7480;43.124;25.686;2023-08-07T13:17:42;0.90;;;0.90;;
14776;SDS011;7480;43.124;25.686;2023-08-07T13:20:12;1.65;;;1.00;;
14776;SDS011;7480;43.124;25.686;2023-08-07T13:22:40;0.70;;;0.70;;
14776;SDS011;7480;43.124;25.686;2023-08-07T13:25:09;0.93;;;0.82;;
14776;SDS011;7480;43.124;25.686;2023-08-07T13:27:37;1.23;;;1.02;;
14776;SDS011;7480;43.124;25.686;2023-08-07T13:30:05;1.10;;;1.00;;
14776;SDS011;7480;43.124;25.686;2023-08-07T13:32:33;0.85;;;0.85;;
14776;SDS011;7480;43.124;25.686;2023-08-07T13:35:00;1.23;;;0.90;;
14776;SDS011;7480;43.124;25.686;2023-08-07T13:37:27;1.85;;;0.90;;
14776;SDS011;7480;43.124;25.686;2023-08-07T13:39:53;1.50;;;0.80;;
14776;SDS011;7480;43.124;25.686;2023-08-07T13:42:24;1.13;;;1.00;;
14776;SDS011;7480;43.124;25.686;2023-08-07T13:44:55;1.35;;;1.00;;
14776;SDS011;7480;43.124;25.686;2023-08-07T13:47:22;1.08;;;1.00;;
14776;SDS011;7480;43.124;25.686;2023-08-07T13:49:52;1.23;;;1.00;;
14776;SDS011;7480;43.124;25.686;2023-08-07T13:52:20;1.23;;;1.00;;
14776;SDS011;7480;43.124;25.686;2023-08-07T13:54:47;1.30;;;1.08;;
14776;SDS011;7480;43.124;25.686;2023-08-07T13:57:14;1.42;;;1.20;;
14776;SDS011;7480;43.124;25.686;2023-08-07T13:59:42;2.25;;;1.10;;
14776;SDS011;7480;43.124;25.686;2023-08-07T14:02:09;1.27;;;0.95;;
14776;SDS011;7480;43.124;25.686;2023-08-07T14:04:35;1.02;;;0.93;;
14776;SDS011;7480;43.124;25.686;2023-08-07T14:07:02;0.98;;;0.88;;
14776;SDS011;7480;43.124;25.686;2023-08-07T14:09:30;1.20;;;1.10;;
14776;SDS011;7480;43.124;25.686;2023-08-07T14:11:57;0.90;;;0.80;;
14776;SDS011;7480;43.124;25.686;2023-08-07T14:14:24;1.17;;;1.00;;
14776;SDS011;7480;43.124;25.686;2023-08-07T14:16:51;1.35;;;1.05;;
14776;SDS011;7480;43.124;25.686;2023-08-07T14:19:18;1.10;;;1.00;;
14776;SDS011;7480;43.124;25.686;2023-08-07T14:21:44;1.98;;;0.90;;
14776;SDS011;7480;43.124;25.686;2023-08-07T14:24:11;1.95;;;1.48;;
14776;SDS011;7480;43.124;25.686;2023-08-07T14:26:38;1.10;;;1.00;;
14776;SDS011;7480;43.124;25.686;2023-08-07T14:29:04;1.00;;;0.98;;
14776;SDS011;7480;43.124;25.686;2023-08-07T14:31:31;1.20;;;1.10;;
14776;SDS011;7480;43.124;25.686;2023-08-07T14:33:58;1.40;;;1.10;;
14776;SDS011;7480;43.124;25.686;2023-08-07T14:36:25;1.20;;;0.90;;
14776;SDS011;7480;43.124;25.686;2023-08-07T14:38:51;1.58;;;1.08;;
14776;SDS011;7480;43.124;25.686;2023-08-07T14:41:18;1.00;;;1.00;;
14776;SDS011;7480;43.124;25.686;2023-08-07T14:43:45;1.30;;;1.08;;
14776;SDS011;7480;43.124;25.686;2023-08-07T14:46:13;1.17;;;1.08;;
14776;SDS011;7480;43.124;25.686;2023-08-07T14:48:40;1.27;;;1.13;;
14776;SDS011;7480;43.124;25.686;2023-08-07T14:51:07;2.63;;;1.25;;
14776;SDS011;7480;43.124;25.686;2023-08-07T14:53:34;2.45;;;1.23;;
14776;SDS011;7480;43.124;25.686;2023-08-07T14:56:01;2.13;;;1.20;;
14776;SDS011;7480;43.124;25.686;2023-08-07T14:58:29;0.98;;;0.88;;
14776;SDS011;7480;43.124;25.686;2023-08-07T15:00:56;1.33;;;1.13;;
14776;SDS011;7480;43.124;25.686;2023-08-07T15:03:22;2.13;;;1.10;;
14776;SDS011;7480;43.124;25.686;2023-08-07T15:05:49;1.15;;;1.05;;